Carrollton, Ohio
Current Conditions -  °F | °C
As of 2:53 PM on Saturday 25 Oct 2014 (Local Time) from KPHD Reporting Station
Scattered Clouds Scattered Clouds  
Wind Chill: 70°   Ceiling: Unl
Heat Index: 70°   Visibility: 10mi
Dew Point: 53°   Wind: 10mph
Humidity: 55%   Direction: 230°SW
Pressure: 29.82"   Gusts: 17mph
Location:  40.57°N, 81.09°W
Report Text: KPHD 251853Z AUTO 23009G15KT 190V260 10SM SCT032 21/12 A2982 RMK AO2 SLP098 T02110117
Loading
Personal Weather Stations






























Interactive Weather Map
Tropical Storm Tracking
New forecast layout! Learn more

10-Day Weather Forecast

Advertisements
Track Severe Weather on mobile